sensor_id;sensor_type;location;lat;lon;timestamp;P1;durP1;ratioP1;P2;durP2;ratioP2
13485;SDS011;6815;59.336;17.998;2024-03-02T00:00:18;31.93;;;18.00;;
13485;SDS011;6815;59.336;17.998;2024-03-02T00:02:46;29.83;;;16.60;;
13485;SDS011;6815;59.336;17.998;2024-03-02T00:07:53;30.13;;;16.97;;
13485;SDS011;6815;59.336;17.998;2024-03-02T00:10:22;32.40;;;17.40;;
13485;SDS011;6815;59.336;17.998;2024-03-02T00:13:02;29.50;;;17.07;;
13485;SDS011;6815;59.336;17.998;2024-03-02T00:15:41;29.70;;;16.73;;
13485;SDS011;6815;59.336;17.998;2024-03-02T00:18:11;36.83;;;17.00;;
13485;SDS011;6815;59.336;17.998;2024-03-02T00:20:38;32.90;;;16.77;;
13485;SDS011;6815;59.336;17.998;2024-03-02T00:23:04;31.67;;;16.40;;
13485;SDS011;6815;59.336;17.998;2024-03-02T00:28:33;29.43;;;17.30;;
13485;SDS011;6815;59.336;17.998;2024-03-02T00:33:30;30.83;;;16.60;;
13485;SDS011;6815;59.336;17.998;2024-03-02T00:36:00;29.57;;;16.90;;
13485;SDS011;6815;59.336;17.998;2024-03-02T00:38:27;30.90;;;17.30;;
13485;SDS011;6815;59.336;17.998;2024-03-02T00:40:53;28.00;;;16.83;;
13485;SDS011;6815;59.336;17.998;2024-03-02T00:46:06;30.50;;;16.63;;
13485;SDS011;6815;59.336;17.998;2024-03-02T00:48:31;27.83;;;16.90;;
13485;SDS011;6815;59.336;17.998;2024-03-02T00:51:00;26.97;;;15.63;;
13485;SDS011;6815;59.336;17.998;2024-03-02T00:53:28;27.33;;;16.57;;
13485;SDS011;6815;59.336;17.998;2024-03-02T00:55:55;28.47;;;16.53;;
13485;SDS011;6815;59.336;17.998;2024-03-02T00:58:20;32.17;;;17.13;;
13485;SDS011;6815;59.336;17.998;2024-03-02T01:00:46;26.03;;;16.73;;
13485;SDS011;6815;59.336;17.998;2024-03-02T01:03:12;31.47;;;16.40;;
13485;SDS011;6815;59.336;17.998;2024-03-02T01:05:41;28.17;;;16.60;;
13485;SDS011;6815;59.336;17.998;2024-03-02T01:08:07;29.20;;;16.80;;
13485;SDS011;6815;59.336;17.998;2024-03-02T01:10:33;25.63;;;16.53;;
13485;SDS011;6815;59.336;17.998;2024-03-02T01:12:58;31.43;;;17.13;;
13485;SDS011;6815;59.336;17.998;2024-03-02T01:15:24;26.60;;;16.30;;
13485;SDS011;6815;59.336;17.998;2024-03-02T01:17:51;31.53;;;17.40;;
13485;SDS011;6815;59.336;17.998;2024-03-02T01:20:16;30.37;;;17.13;;
13485;SDS011;6815;59.336;17.998;2024-03-02T01:22:42;27.43;;;16.90;;
13485;SDS011;6815;59.336;17.998;2024-03-02T01:25:08;31.93;;;17.00;;
13485;SDS011;6815;59.336;17.998;2024-03-02T01:27:33;27.77;;;16.37;;
13485;SDS011;6815;59.336;17.998;2024-03-02T01:29:59;29.20;;;17.10;;
13485;SDS011;6815;59.336;17.998;2024-03-02T01:32:25;28.03;;;16.43;;
13485;SDS011;6815;59.336;17.998;2024-03-02T01:34:52;27.43;;;15.70;;
13485;SDS011;6815;59.336;17.998;2024-03-02T01:37:17;29.83;;;16.93;;
13485;SDS011;6815;59.336;17.998;2024-03-02T01:39:43;28.97;;;17.40;;
13485;SDS011;6815;59.336;17.998;2024-03-02T01:42:08;31.13;;;16.97;;
13485;SDS011;6815;59.336;17.998;2024-03-02T01:44:35;26.47;;;17.03;;
13485;SDS011;6815;59.336;17.998;2024-03-02T01:47:01;31.07;;;17.37;;
13485;SDS011;6815;59.336;17.998;2024-03-02T01:49:27;24.83;;;15.60;;
13485;SDS011;6815;59.336;17.998;2024-03-02T01:51:52;26.70;;;17.07;;
13485;SDS011;6815;59.336;17.998;2024-03-02T01:54:17;29.40;;;17.20;;
13485;SDS011;6815;59.336;17.998;2024-03-02T01:56:43;27.70;;;16.53;;
13485;SDS011;6815;59.336;17.998;2024-03-02T01:59:09;27.30;;;16.07;;
13485;SDS011;6815;59.336;17.998;2024-03-02T02:01:34;25.50;;;15.77;;
13485;SDS011;6815;59.336;17.998;2024-03-02T02:04:01;26.73;;;16.50;;
13485;SDS011;6815;59.336;17.998;2024-03-02T02:06:26;27.97;;;17.80;;
13485;SDS011;6815;59.336;17.998;2024-03-02T02:08:52;25.77;;;16.53;;
13485;SDS011;6815;59.336;17.998;2024-03-02T02:11:17;31.80;;;16.80;;
13485;SDS011;6815;59.336;17.998;2024-03-02T02:13:43;28.23;;;17.27;;
13485;SDS011;6815;59.336;17.998;2024-03-02T02:16:09;29.50;;;16.90;;
13485;SDS011;6815;59.336;17.998;2024-03-02T02:18:34;31.80;;;17.07;;
13485;SDS011;6815;59.336;17.998;2024-03-02T02:21:01;34.13;;;17.27;;
13485;SDS011;6815;59.336;17.998;2024-03-02T02:23:27;27.33;;;17.23;;
13485;SDS011;6815;59.336;17.998;2024-03-02T02:25:52;27.83;;;16.77;;
13485;SDS011;6815;59.336;17.998;2024-03-02T02:28:17;27.83;;;17.07;;
13485;SDS011;6815;59.336;17.998;2024-03-02T02:30:43;30.53;;;18.07;;
13485;SDS011;6815;59.336;17.998;2024-03-02T02:33:08;29.40;;;18.23;;
13485;SDS011;6815;59.336;17.998;2024-03-02T02:35:34;30.63;;;18.33;;
13485;SDS011;6815;59.336;17.998;2024-03-02T02:38:00;32.67;;;18.23;;
13485;SDS011;6815;59.336;17.998;2024-03-02T02:40:26;32.07;;;18.57;;
13485;SDS011;6815;59.336;17.998;2024-03-02T02:42:54;26.97;;;17.53;;
13485;SDS011;6815;59.336;17.998;2024-03-02T02:45:19;29.30;;;17.80;;
13485;SDS011;6815;59.336;17.998;2024-03-02T02:47:45;28.83;;;17.40;;
13485;SDS011;6815;59.336;17.998;2024-03-02T02:50:11;33.13;;;19.03;;
13485;SDS011;6815;59.336;17.998;2024-03-02T02:52:38;30.40;;;18.07;;
13485;SDS011;6815;59.336;17.998;2024-03-02T02:55:05;30.83;;;17.80;;
13485;SDS011;6815;59.336;17.998;2024-03-02T02:57:33;30.43;;;17.83;;
13485;SDS011;6815;59.336;17.998;2024-03-02T03:00:07;30.80;;;18.43;;
13485;SDS011;6815;59.336;17.998;2024-03-02T03:02:40;28.73;;;17.90;;
13485;SDS011;6815;59.336;17.998;2024-03-02T03:05:09;32.50;;;19.13;;
13485;SDS011;6815;59.336;17.998;2024-03-02T03:07:37;31.23;;;17.57;;
13485;SDS011;6815;59.336;17.998;2024-03-02T03:10:04;30.87;;;19.43;;
13485;SDS011;6815;59.336;17.998;2024-03-02T03:12:31;32.03;;;18.53;;
13485;SDS011;6815;59.336;17.998;2024-03-02T03:14:58;28.93;;;17.73;;
13485;SDS011;6815;59.336;17.998;2024-03-02T03:17:24;30.27;;;18.23;;
13485;SDS011;6815;59.336;17.998;2024-03-02T03:19:49;31.73;;;18.93;;
13485;SDS011;6815;59.336;17.998;2024-03-02T03:22:15;34.60;;;19.03;;
13485;SDS011;6815;59.336;17.998;2024-03-02T03:24:41;32.30;;;18.47;;
13485;SDS011;6815;59.336;17.998;2024-03-02T03:27:06;32.93;;;19.77;;
13485;SDS011;6815;59.336;17.998;2024-03-02T03:29:32;31.77;;;19.43;;
13485;SDS011;6815;59.336;17.998;2024-03-02T03:31:57;33.67;;;18.57;;
13485;SDS011;6815;59.336;17.998;2024-03-02T03:34:23;35.90;;;19.57;;
13485;SDS011;6815;59.336;17.998;2024-03-02T03:36:48;32.20;;;18.53;;
13485;SDS011;6815;59.336;17.998;2024-03-02T03:39:14;33.17;;;20.00;;
13485;SDS011;6815;59.336;17.998;2024-03-02T03:41:40;33.80;;;19.03;;
13485;SDS011;6815;59.336;17.998;2024-03-02T03:44:06;35.20;;;19.63;;
13485;SDS011;6815;59.336;17.998;2024-03-02T03:46:31;34.93;;;19.23;;
13485;SDS011;6815;59.336;17.998;2024-03-02T03:48:56;33.97;;;19.83;;
13485;SDS011;6815;59.336;17.998;2024-03-02T03:51:22;31.93;;;19.13;;
13485;SDS011;6815;59.336;17.998;2024-03-02T03:53:50;37.07;;;20.03;;
13485;SDS011;6815;59.336;17.998;2024-03-02T03:56:15;34.63;;;19.10;;
13485;SDS011;6815;59.336;17.998;2024-03-02T03:58:41;32.27;;;19.47;;
13485;SDS011;6815;59.336;17.998;2024-03-02T04:01:07;31.30;;;19.23;;
13485;SDS011;6815;59.336;17.998;2024-03-02T04:03:33;31.37;;;19.03;;
13485;SDS011;6815;59.336;17.998;2024-03-02T04:05:59;33.60;;;20.33;;
13485;SDS011;6815;59.336;17.998;2024-03-02T04:08:25;32.73;;;18.30;;
13485;SDS011;6815;59.336;17.998;2024-03-02T04:10:50;30.63;;;19.13;;
13485;SDS011;6815;59.336;17.998;2024-03-02T04:13:16;28.87;;;17.83;;
13485;SDS011;6815;59.336;17.998;2024-03-02T04:15:41;34.27;;;18.70;;
13485;SDS011;6815;59.336;17.998;2024-03-02T04:18:06;33.00;;;19.03;;
13485;SDS011;6815;59.336;17.998;2024-03-02T04:20:32;31.67;;;18.30;;
13485;SDS011;6815;59.336;17.998;2024-03-02T04:22:57;30.10;;;17.07;;
13485;SDS011;6815;59.336;17.998;2024-03-02T04:25:24;28.93;;;18.73;;
13485;SDS011;6815;59.336;17.998;2024-03-02T04:27:49;31.90;;;18.27;;
13485;SDS011;6815;59.336;17.998;2024-03-02T04:30:15;30.57;;;18.50;;
13485;SDS011;6815;59.336;17.998;2024-03-02T04:32:40;29.47;;;17.73;;
13485;SDS011;6815;59.336;17.998;2024-03-02T04:35:06;31.27;;;18.87;;
13485;SDS011;6815;59.336;17.998;2024-03-02T04:37:35;32.93;;;19.07;;
13485;SDS011;6815;59.336;17.998;2024-03-02T04:40:00;32.70;;;19.43;;
13485;SDS011;6815;59.336;17.998;2024-03-02T04:42:26;30.50;;;18.57;;
13485;SDS011;6815;59.336;17.998;2024-03-02T04:44:51;28.90;;;18.20;;
13485;SDS011;6815;59.336;17.998;2024-03-02T04:47:17;29.10;;;17.73;;
13485;SDS011;6815;59.336;17.998;2024-03-02T04:49:42;33.53;;;18.83;;
13485;SDS011;6815;59.336;17.998;2024-03-02T04:52:08;32.03;;;18.37;;
13485;SDS011;6815;59.336;17.998;2024-03-02T04:54:33;26.63;;;17.63;;
13485;SDS011;6815;59.336;17.998;2024-03-02T04:57:19;33.80;;;18.53;;
13485;SDS011;6815;59.336;17.998;2024-03-02T04:59:46;32.23;;;19.03;;
13485;SDS011;6815;59.336;17.998;2024-03-02T05:02:11;33.27;;;18.90;;
13485;SDS011;6815;59.336;17.998;2024-03-02T05:04:39;31.17;;;18.50;;
13485;SDS011;6815;59.336;17.998;2024-03-02T05:07:04;30.27;;;17.43;;
13485;SDS011;6815;59.336;17.998;2024-03-02T05:09:30;30.70;;;18.30;;
13485;SDS011;6815;59.336;17.998;2024-03-02T05:11:56;32.90;;;18.90;;
13485;SDS011;6815;59.336;17.998;2024-03-02T05:14:36;30.43;;;18.17;;
13485;SDS011;6815;59.336;17.998;2024-03-02T05:17:04;29.10;;;18.23;;
13485;SDS011;6815;59.336;17.998;2024-03-02T05:19:29;33.20;;;19.00;;
13485;SDS011;6815;59.336;17.998;2024-03-02T05:21:55;33.50;;;18.47;;
13485;SDS011;6815;59.336;17.998;2024-03-02T05:24:20;33.00;;;18.33;;
13485;SDS011;6815;59.336;17.998;2024-03-02T05:26:45;31.23;;;17.93;;
13485;SDS011;6815;59.336;17.998;2024-03-02T05:29:11;34.57;;;17.90;;
13485;SDS011;6815;59.336;17.998;2024-03-02T05:31:36;35.40;;;17.87;;
13485;SDS011;6815;59.336;17.998;2024-03-02T05:34:01;33.80;;;18.77;;
13485;SDS011;6815;59.336;17.998;2024-03-02T05:36:27;32.67;;;18.10;;
13485;SDS011;6815;59.336;17.998;2024-03-02T05:38:53;33.07;;;19.40;;
13485;SDS011;6815;59.336;17.998;2024-03-02T05:41:18;33.67;;;18.67;;
13485;SDS011;6815;59.336;17.998;2024-03-02T05:43:43;35.10;;;18.93;;
13485;SDS011;6815;59.336;17.998;2024-03-02T05:46:09;33.00;;;19.03;;
13485;SDS011;6815;59.336;17.998;2024-03-02T05:48:34;32.23;;;18.23;;
13485;SDS011;6815;59.336;17.998;2024-03-02T05:51:01;31.87;;;18.90;;
13485;SDS011;6815;59.336;17.998;2024-03-02T05:53:27;32.43;;;18.37;;
13485;SDS011;6815;59.336;17.998;2024-03-02T05:55:52;34.13;;;20.20;;
13485;SDS011;6815;59.336;17.998;2024-03-02T05:58:20;34.90;;;18.77;;
13485;SDS011;6815;59.336;17.998;2024-03-02T06:01:06;36.03;;;19.57;;
13485;SDS011;6815;59.336;17.998;2024-03-02T06:03:33;33.03;;;18.83;;
13485;SDS011;6815;59.336;17.998;2024-03-02T06:05:58;31.10;;;18.37;;
13485;SDS011;6815;59.336;17.998;2024-03-02T06:08:24;33.30;;;18.83;;
13485;SDS011;6815;59.336;17.998;2024-03-02T06:10:50;32.13;;;19.27;;
13485;SDS011;6815;59.336;17.998;2024-03-02T06:13:15;32.23;;;17.23;;
13485;SDS011;6815;59.336;17.998;2024-03-02T06:15:41;31.33;;;18.03;;
13485;SDS011;6815;59.336;17.998;2024-03-02T06:18:06;34.17;;;18.70;;
13485;SDS011;6815;59.336;17.998;2024-03-02T06:20:32;31.77;;;19.13;;
13485;SDS011;6815;59.336;17.998;2024-03-02T06:22:58;32.30;;;18.00;;
13485;SDS011;6815;59.336;17.998;2024-03-02T06:25:24;32.60;;;18.93;;
13485;SDS011;6815;59.336;17.998;2024-03-02T06:27:51;28.10;;;17.37;;
13485;SDS011;6815;59.336;17.998;2024-03-02T06:30:16;32.60;;;18.00;;
13485;SDS011;6815;59.336;17.998;2024-03-02T06:32:42;29.07;;;16.70;;
13485;SDS011;6815;59.336;17.998;2024-03-02T06:35:07;32.17;;;18.33;;
13485;SDS011;6815;59.336;17.998;2024-03-02T06:37:35;32.43;;;18.00;;
13485;SDS011;6815;59.336;17.998;2024-03-02T06:40:05;28.37;;;17.17;;
13485;SDS011;6815;59.336;17.998;2024-03-02T06:42:33;30.83;;;17.70;;
13485;SDS011;6815;59.336;17.998;2024-03-02T06:44:58;31.10;;;17.47;;
13485;SDS011;6815;59.336;17.998;2024-03-02T06:47:24;32.13;;;17.10;;
13485;SDS011;6815;59.336;17.998;2024-03-02T06:49:50;32.27;;;18.13;;
13485;SDS011;6815;59.336;17.998;2024-03-02T06:52:15;33.30;;;17.67;;
13485;SDS011;6815;59.336;17.998;2024-03-02T06:54:41;31.60;;;17.90;;
13485;SDS011;6815;59.336;17.998;2024-03-02T06:57:07;29.37;;;16.87;;
13485;SDS011;6815;59.336;17.998;2024-03-02T06:59:32;31.63;;;17.17;;
13485;SDS011;6815;59.336;17.998;2024-03-02T07:01:58;30.37;;;16.87;;
13485;SDS011;6815;59.336;17.998;2024-03-02T07:04:24;30.13;;;16.97;;
13485;SDS011;6815;59.336;17.998;2024-03-02T07:06:49;30.87;;;17.00;;
13485;SDS011;6815;59.336;17.998;2024-03-02T07:09:16;32.73;;;15.97;;
13485;SDS011;6815;59.336;17.998;2024-03-02T07:11:41;30.37;;;16.33;;
13485;SDS011;6815;59.336;17.998;2024-03-02T07:14:07;29.97;;;16.50;;
13485;SDS011;6815;59.336;17.998;2024-03-02T07:16:32;29.53;;;15.77;;
13485;SDS011;6815;59.336;17.998;2024-03-02T07:18:59;31.60;;;16.93;;
13485;SDS011;6815;59.336;17.998;2024-03-02T07:21:27;25.97;;;14.50;;
13485;SDS011;6815;59.336;17.998;2024-03-02T07:23:52;29.93;;;16.23;;
13485;SDS011;6815;59.336;17.998;2024-03-02T07:26:18;27.73;;;15.80;;
13485;SDS011;6815;59.336;17.998;2024-03-02T07:28:45;28.03;;;15.40;;
13485;SDS011;6815;59.336;17.998;2024-03-02T07:31:13;31.50;;;17.23;;
13485;SDS011;6815;59.336;17.998;2024-03-02T07:33:39;27.23;;;15.40;;
13485;SDS011;6815;59.336;17.998;2024-03-02T07:36:04;28.40;;;15.37;;
13485;SDS011;6815;59.336;17.998;2024-03-02T07:38:30;29.27;;;15.40;;
13485;SDS011;6815;59.336;17.998;2024-03-02T07:40:57;25.70;;;16.20;;
13485;SDS011;6815;59.336;17.998;2024-03-02T07:43:22;27.60;;;15.10;;
13485;SDS011;6815;59.336;17.998;2024-03-02T07:45:48;32.30;;;16.07;;
13485;SDS011;6815;59.336;17.998;2024-03-02T07:48:14;23.77;;;15.23;;
13485;SDS011;6815;59.336;17.998;2024-03-02T07:50:40;25.20;;;15.53;;
13485;SDS011;6815;59.336;17.998;2024-03-02T07:53:05;27.53;;;15.23;;
13485;SDS011;6815;59.336;17.998;2024-03-02T07:55:32;28.17;;;16.90;;
13485;SDS011;6815;59.336;17.998;2024-03-02T07:57:58;25.43;;;15.70;;
13485;SDS011;6815;59.336;17.998;2024-03-02T08:00:23;27.33;;;15.80;;
13485;SDS011;6815;59.336;17.998;2024-03-02T08:02:50;29.67;;;14.80;;
13485;SDS011;6815;59.336;17.998;2024-03-02T08:05:17;28.20;;;15.97;;
13485;SDS011;6815;59.336;17.998;2024-03-02T08:07:45;26.73;;;15.03;;
13485;SDS011;6815;59.336;17.998;2024-03-02T08:10:11;30.33;;;15.63;;
13485;SDS011;6815;59.336;17.998;2024-03-02T08:12:37;28.27;;;15.80;;
13485;SDS011;6815;59.336;17.998;2024-03-02T08:15:02;26.33;;;15.70;;
13485;SDS011;6815;59.336;17.998;2024-03-02T08:17:29;25.70;;;15.40;;
13485;SDS011;6815;59.336;17.998;2024-03-02T08:19:55;27.87;;;15.27;;
13485;SDS011;6815;59.336;17.998;2024-03-02T08:22:21;23.00;;;15.63;;
13485;SDS011;6815;59.336;17.998;2024-03-02T08:24:47;26.53;;;15.33;;
13485;SDS011;6815;59.336;17.998;2024-03-02T08:27:14;28.60;;;14.20;;
13485;SDS011;6815;59.336;17.998;2024-03-02T08:29:40;25.37;;;15.13;;
13485;SDS011;6815;59.336;17.998;2024-03-02T08:32:06;24.23;;;14.87;;
13485;SDS011;6815;59.336;17.998;2024-03-02T08:34:32;26.00;;;14.30;;
13485;SDS011;6815;59.336;17.998;2024-03-02T08:37:02;25.67;;;14.63;;
13485;SDS011;6815;59.336;17.998;2024-03-02T08:39:27;22.33;;;14.20;;
13485;SDS011;6815;59.336;17.998;2024-03-02T08:41:53;25.30;;;15.60;;
13485;SDS011;6815;59.336;17.998;2024-03-02T08:44:19;23.00;;;13.90;;
13485;SDS011;6815;59.336;17.998;2024-03-02T08:46:46;29.27;;;15.07;;
13485;SDS011;6815;59.336;17.998;2024-03-02T08:49:13;24.57;;;14.77;;
13485;SDS011;6815;59.336;17.998;2024-03-02T08:51:39;21.80;;;14.23;;
13485;SDS011;6815;59.336;17.998;2024-03-02T08:54:04;24.20;;;15.13;;
13485;SDS011;6815;59.336;17.998;2024-03-02T08:56:30;25.73;;;14.80;;
13485;SDS011;6815;59.336;17.998;2024-03-02T08:58:56;21.00;;;14.07;;
13485;SDS011;6815;59.336;17.998;2024-03-02T09:01:23;20.87;;;13.70;;
13485;SDS011;6815;59.336;17.998;2024-03-02T09:03:48;23.73;;;13.93;;
13485;SDS011;6815;59.336;17.998;2024-03-02T09:06:14;26.27;;;14.83;;
13485;SDS011;6815;59.336;17.998;2024-03-02T09:08:42;24.40;;;15.13;;
13485;SDS011;6815;59.336;17.998;2024-03-02T09:11:08;22.47;;;13.33;;
13485;SDS011;6815;59.336;17.998;2024-03-02T09:13:36;23.50;;;13.80;;
13485;SDS011;6815;59.336;17.998;2024-03-02T09:16:03;24.60;;;13.97;;
13485;SDS011;6815;59.336;17.998;2024-03-02T09:18:30;22.13;;;13.70;;
13485;SDS011;6815;59.336;17.998;2024-03-02T09:20:55;22.50;;;13.90;;
13485;SDS011;6815;59.336;17.998;2024-03-02T09:23:22;21.67;;;13.37;;
13485;SDS011;6815;59.336;17.998;2024-03-02T09:25:48;24.73;;;15.20;;
13485;SDS011;6815;59.336;17.998;2024-03-02T09:28:15;23.47;;;13.47;;
13485;SDS011;6815;59.336;17.998;2024-03-02T09:30:40;22.77;;;13.80;;
13485;SDS011;6815;59.336;17.998;2024-03-02T09:33:06;25.60;;;14.70;;
13485;SDS011;6815;59.336;17.998;2024-03-02T09:35:32;23.97;;;13.60;;
13485;SDS011;6815;59.336;17.998;2024-03-02T09:37:57;22.63;;;13.97;;
13485;SDS011;6815;59.336;17.998;2024-03-02T09:40:22;21.87;;;13.70;;
13485;SDS011;6815;59.336;17.998;2024-03-02T09:42:48;22.53;;;13.57;;
13485;SDS011;6815;59.336;17.998;2024-03-02T09:45:20;21.97;;;13.07;;
13485;SDS011;6815;59.336;17.998;2024-03-02T09:47:48;23.30;;;13.70;;
13485;SDS011;6815;59.336;17.998;2024-03-02T09:50:14;22.50;;;13.23;;
13485;SDS011;6815;59.336;17.998;2024-03-02T09:52:40;23.77;;;12.90;;
13485;SDS011;6815;59.336;17.998;2024-03-02T09:55:08;21.27;;;13.63;;
13485;SDS011;6815;59.336;17.998;2024-03-02T09:57:34;18.60;;;12.97;;
13485;SDS011;6815;59.336;17.998;2024-03-02T10:00:00;20.07;;;13.03;;
13485;SDS011;6815;59.336;17.998;2024-03-02T10:02:26;23.33;;;13.43;;
13485;SDS011;6815;59.336;17.998;2024-03-02T10:04:51;21.47;;;13.60;;
13485;SDS011;6815;59.336;17.998;2024-03-02T10:07:17;23.03;;;13.70;;
13485;SDS011;6815;59.336;17.998;2024-03-02T10:09:49;21.23;;;13.37;;
13485;SDS011;6815;59.336;17.998;2024-03-02T10:12:17;20.60;;;13.40;;
13485;SDS011;6815;59.336;17.998;2024-03-02T10:14:43;20.30;;;13.63;;
13485;SDS011;6815;59.336;17.998;2024-03-02T10:17:11;22.07;;;13.03;;
13485;SDS011;6815;59.336;17.998;2024-03-02T10:19:37;21.03;;;12.80;;
13485;SDS011;6815;59.336;17.998;2024-03-02T10:22:05;22.60;;;13.10;;
13485;SDS011;6815;59.336;17.998;2024-03-02T10:24:39;21.67;;;13.60;;
13485;SDS011;6815;59.336;17.998;2024-03-02T10:29:40;22.47;;;13.80;;
13485;SDS011;6815;59.336;17.998;2024-03-02T10:32:08;21.27;;;13.27;;
13485;SDS011;6815;59.336;17.998;2024-03-02T10:34:35;20.20;;;13.27;;
13485;SDS011;6815;59.336;17.998;2024-03-02T10:37:01;21.70;;;12.93;;
13485;SDS011;6815;59.336;17.998;2024-03-02T10:39:26;19.30;;;12.80;;
13485;SDS011;6815;59.336;17.998;2024-03-02T10:41:53;20.90;;;13.67;;
13485;SDS011;6815;59.336;17.998;2024-03-02T10:44:20;23.50;;;13.03;;
13485;SDS011;6815;59.336;17.998;2024-03-02T10:46:47;21.80;;;13.93;;
13485;SDS011;6815;59.336;17.998;2024-03-02T10:49:15;22.63;;;13.50;;
13485;SDS011;6815;59.336;17.998;2024-03-02T10:51:42;24.23;;;14.00;;
13485;SDS011;6815;59.336;17.998;2024-03-02T10:54:07;24.73;;;13.57;;
13485;SDS011;6815;59.336;17.998;2024-03-02T10:59:06;21.50;;;14.23;;
13485;SDS011;6815;59.336;17.998;2024-03-02T11:01:57;20.60;;;13.10;;
13485;SDS011;6815;59.336;17.998;2024-03-02T11:04:24;21.77;;;12.70;;
13485;SDS011;6815;59.336;17.998;2024-03-02T11:06:51;21.77;;;13.10;;
13485;SDS011;6815;59.336;17.998;2024-03-02T11:09:29;21.77;;;13.87;;
13485;SDS011;6815;59.336;17.998;2024-03-02T11:14:47;19.67;;;13.00;;
13485;SDS011;6815;59.336;17.998;2024-03-02T11:17:17;21.60;;;13.77;;
13485;SDS011;6815;59.336;17.998;2024-03-02T11:19:43;20.63;;;13.27;;
13485;SDS011;6815;59.336;17.998;2024-03-02T11:22:10;20.97;;;13.73;;
13485;SDS011;6815;59.336;17.998;2024-03-02T11:24:37;20.80;;;12.83;;
13485;SDS011;6815;59.336;17.998;2024-03-02T11:27:03;20.23;;;13.07;;
13485;SDS011;6815;59.336;17.998;2024-03-02T11:32:06;21.73;;;12.90;;
13485;SDS011;6815;59.336;17.998;2024-03-02T11:34:35;19.80;;;12.87;;
13485;SDS011;6815;59.336;17.998;2024-03-02T11:37:04;20.10;;;12.47;;
13485;SDS011;6815;59.336;17.998;2024-03-02T11:39:30;22.50;;;13.10;;
13485;SDS011;6815;59.336;17.998;2024-03-02T11:41:56;23.00;;;13.13;;
13485;SDS011;6815;59.336;17.998;2024-03-02T11:44:22;23.60;;;14.10;;
13485;SDS011;6815;59.336;17.998;2024-03-02T11:49:39;22.53;;;13.90;;
13485;SDS011;6815;59.336;17.998;2024-03-02T11:52:11;21.63;;;12.70;;
13485;SDS011;6815;59.336;17.998;2024-03-02T11:54:42;25.37;;;13.80;;
13485;SDS011;6815;59.336;17.998;2024-03-02T11:57:13;22.87;;;13.73;;
13485;SDS011;6815;59.336;17.998;2024-03-02T11:59:43;21.57;;;12.77;;
13485;SDS011;6815;59.336;17.998;2024-03-02T12:02:14;21.40;;;13.23;;
13485;SDS011;6815;59.336;17.998;2024-03-02T12:04:42;20.13;;;12.93;;
13485;SDS011;6815;59.336;17.998;2024-03-02T12:07:08;20.77;;;13.27;;
13485;SDS011;6815;59.336;17.998;2024-03-02T12:09:34;20.47;;;12.70;;
13485;SDS011;6815;59.336;17.998;2024-03-02T12:12:06;20.77;;;13.53;;
13485;SDS011;6815;59.336;17.998;2024-03-02T12:14:33;20.17;;;12.83;;
13485;SDS011;6815;59.336;17.998;2024-03-02T12:17:00;19.77;;;12.83;;
13485;SDS011;6815;59.336;17.998;2024-03-02T12:19:27;19.47;;;13.13;;
13485;SDS011;6815;59.336;17.998;2024-03-02T12:21:55;21.27;;;13.47;;
13485;SDS011;6815;59.336;17.998;2024-03-02T12:24:24;21.00;;;13.17;;
13485;SDS011;6815;59.336;17.998;2024-03-02T12:26:52;19.70;;;13.07;;
13485;SDS011;6815;59.336;17.998;2024-03-02T12:29:19;20.43;;;13.20;;
13485;SDS011;6815;59.336;17.998;2024-03-02T12:31:47;19.07;;;11.67;;
13485;SDS011;6815;59.336;17.998;2024-03-02T12:34:14;21.73;;;13.03;;
13485;SDS011;6815;59.336;17.998;2024-03-02T12:36:40;19.20;;;13.20;;
13485;SDS011;6815;59.336;17.998;2024-03-02T12:39:09;19.67;;;12.57;;
13485;SDS011;6815;59.336;17.998;2024-03-02T12:41:36;19.73;;;12.63;;
13485;SDS011;6815;59.336;17.998;2024-03-02T12:44:03;21.47;;;13.30;;
13485;SDS011;6815;59.336;17.998;2024-03-02T12:46:29;21.13;;;13.57;;
13485;SDS011;6815;59.336;17.998;2024-03-02T12:48:55;21.63;;;12.70;;
13485;SDS011;6815;59.336;17.998;2024-03-02T12:51:20;21.33;;;12.40;;
13485;SDS011;6815;59.336;17.998;2024-03-02T12:53:52;21.53;;;12.57;;
13485;SDS011;6815;59.336;17.998;2024-03-02T12:56:19;20.90;;;13.27;;
13485;SDS011;6815;59.336;17.998;2024-03-02T12:58:44;20.83;;;13.00;;
13485;SDS011;6815;59.336;17.998;2024-03-02T13:01:10;21.73;;;12.83;;
13485;SDS011;6815;59.336;17.998;2024-03-02T13:03:37;19.23;;;12.50;;
13485;SDS011;6815;59.336;17.998;2024-03-02T13:06:04;17.53;;;12.33;;
13485;SDS011;6815;59.336;17.998;2024-03-02T13:08:31;19.97;;;12.43;;
13485;SDS011;6815;59.336;17.998;2024-03-02T13:10:57;21.37;;;13.00;;
13485;SDS011;6815;59.336;17.998;2024-03-02T13:13:23;22.27;;;12.33;;
13485;SDS011;6815;59.336;17.998;2024-03-02T13:15:49;21.80;;;11.93;;
13485;SDS011;6815;59.336;17.998;2024-03-02T13:18:14;20.63;;;12.87;;
13485;SDS011;6815;59.336;17.998;2024-03-02T13:20:42;17.10;;;11.87;;
13485;SDS011;6815;59.336;17.998;2024-03-02T13:23:08;23.80;;;12.73;;
13485;SDS011;6815;59.336;17.998;2024-03-02T13:25:34;21.13;;;12.53;;
13485;SDS011;6815;59.336;17.998;2024-03-02T13:27:59;18.90;;;12.40;;
13485;SDS011;6815;59.336;17.998;2024-03-02T13:30:25;21.63;;;12.77;;
13485;SDS011;6815;59.336;17.998;2024-03-02T13:32:51;17.77;;;12.57;;
13485;SDS011;6815;59.336;17.998;2024-03-02T13:35:16;21.97;;;12.00;;
13485;SDS011;6815;59.336;17.998;2024-03-02T13:37:42;23.30;;;12.70;;
13485;SDS011;6815;59.336;17.998;2024-03-02T13:40:07;20.90;;;12.60;;
13485;SDS011;6815;59.336;17.998;2024-03-02T13:42:38;19.13;;;11.97;;
13485;SDS011;6815;59.336;17.998;2024-03-02T13:45:05;20.90;;;12.60;;
13485;SDS011;6815;59.336;17.998;2024-03-02T13:47:31;20.50;;;12.17;;
13485;SDS011;6815;59.336;17.998;2024-03-02T13:49:57;20.50;;;12.43;;
13485;SDS011;6815;59.336;17.998;2024-03-02T13:52:23;20.53;;;11.97;;
13485;SDS011;6815;59.336;17.998;2024-03-02T13:54:50;21.60;;;12.57;;
13485;SDS011;6815;59.336;17.998;2024-03-02T13:57:17;19.23;;;12.13;;
13485;SDS011;6815;59.336;17.998;2024-03-02T13:59:45;18.83;;;12.23;;
13485;SDS011;6815;59.336;17.998;2024-03-02T14:02:11;21.07;;;12.27;;
13485;SDS011;6815;59.336;17.998;2024-03-02T14:04:37;19.33;;;12.13;;
13485;SDS011;6815;59.336;17.998;2024-03-02T14:07:05;18.70;;;12.20;;
13485;SDS011;6815;59.336;17.998;2024-03-02T14:09:33;18.40;;;12.00;;
13485;SDS011;6815;59.336;17.998;2024-03-02T14:11:59;20.67;;;12.13;;
13485;SDS011;6815;59.336;17.998;2024-03-02T14:14:27;19.20;;;11.83;;
13485;SDS011;6815;59.336;17.998;2024-03-02T14:16:53;19.17;;;12.20;;
13485;SDS011;6815;59.336;17.998;2024-03-02T14:19:20;18.30;;;11.60;;
13485;SDS011;6815;59.336;17.998;2024-03-02T14:21:46;18.40;;;12.57;;
13485;SDS011;6815;59.336;17.998;2024-03-02T14:24:17;17.20;;;12.10;;
13485;SDS011;6815;59.336;17.998;2024-03-02T14:26:43;22.43;;;12.70;;
13485;SDS011;6815;59.336;17.998;2024-03-02T14:29:08;20.20;;;12.80;;
13485;SDS011;6815;59.336;17.998;2024-03-02T14:31:34;20.23;;;11.93;;
13485;SDS011;6815;59.336;17.998;2024-03-02T14:34:00;19.10;;;12.10;;
13485;SDS011;6815;59.336;17.998;2024-03-02T14:36:26;21.37;;;12.73;;
13485;SDS011;6815;59.336;17.998;2024-03-02T14:38:52;15.83;;;11.63;;
13485;SDS011;6815;59.336;17.998;2024-03-02T14:41:18;20.60;;;12.20;;